sensor_id;sensor_type;location;lat;lon;timestamp;temperature;humidity
20866;DHT22;10593;48.398;10.698;2022-08-19T00:01:49;24.00;61.20
20866;DHT22;10593;48.398;10.698;2022-08-19T00:04:18;24.00;61.10
20866;DHT22;10593;48.398;10.698;2022-08-19T00:06:47;24.00;61.00
20866;DHT22;10593;48.398;10.698;2022-08-19T00:09:15;24.00;61.20
20866;DHT22;10593;48.398;10.698;2022-08-19T00:11:43;23.90;61.30
20866;DHT22;10593;48.398;10.698;2022-08-19T00:14:11;24.00;61.20
20866;DHT22;10593;48.398;10.698;2022-08-19T00:16:39;23.90;61.10
20866;DHT22;10593;48.398;10.698;2022-08-19T00:19:07;23.90;61.50
20866;DHT22;10593;48.398;10.698;2022-08-19T00:21:33;23.90;61.50
20866;DHT22;10593;48.398;10.698;2022-08-19T00:24:08;23.90;61.50
20866;DHT22;10593;48.398;10.698;2022-08-19T00:26:36;23.90;61.80
20866;DHT22;10593;48.398;10.698;2022-08-19T00:29:03;23.90;61.70
20866;DHT22;10593;48.398;10.698;2022-08-19T00:31:30;23.90;61.70
20866;DHT22;10593;48.398;10.698;2022-08-19T00:33:56;23.90;61.70
20866;DHT22;10593;48.398;10.698;2022-08-19T00:36:22;23.90;61.80
20866;DHT22;10593;48.398;10.698;2022-08-19T00:38:48;23.90;61.90
20866;DHT22;10593;48.398;10.698;2022-08-19T00:41:18;23.80;62.10
20866;DHT22;10593;48.398;10.698;2022-08-19T00:46:38;23.80;62.70
20866;DHT22;10593;48.398;10.698;2022-08-19T00:49:11;23.70;62.50
20866;DHT22;10593;48.398;10.698;2022-08-19T00:51:41;23.80;63.00
20866;DHT22;10593;48.398;10.698;2022-08-19T00:54:09;23.70;63.00
20866;DHT22;10593;48.398;10.698;2022-08-19T00:56:36;23.70;63.00
20866;DHT22;10593;48.398;10.698;2022-08-19T00:59:03;23.70;63.00
20866;DHT22;10593;48.398;10.698;2022-08-19T01:01:36;23.70;63.20
20866;DHT22;10593;48.398;10.698;2022-08-19T01:04:03;23.70;63.00
20866;DHT22;10593;48.398;10.698;2022-08-19T01:06:30;23.70;63.10
20866;DHT22;10593;48.398;10.698;2022-08-19T01:08:58;23.70;63.10
20866;DHT22;10593;48.398;10.698;2022-08-19T01:11:26;23.70;63.20
20866;DHT22;10593;48.398;10.698;2022-08-19T01:13:54;23.70;63.30
20866;DHT22;10593;48.398;10.698;2022-08-19T01:16:22;23.70;63.30
20866;DHT22;10593;48.398;10.698;2022-08-19T01:18:50;23.70;63.30
20866;DHT22;10593;48.398;10.698;2022-08-19T01:21:40;23.70;63.20
20866;DHT22;10593;48.398;10.698;2022-08-19T01:24:10;23.70;63.20
20866;DHT22;10593;48.398;10.698;2022-08-19T01:26:43;23.60;62.80
20866;DHT22;10593;48.398;10.698;2022-08-19T01:29:10;23.60;62.90
20866;DHT22;10593;48.398;10.698;2022-08-19T01:31:36;23.60;62.90
20866;DHT22;10593;48.398;10.698;2022-08-19T01:34:04;23.60;63.00
20866;DHT22;10593;48.398;10.698;2022-08-19T01:36:41;23.60;62.90
20866;DHT22;10593;48.398;10.698;2022-08-19T01:39:16;23.60;63.10
20866;DHT22;10593;48.398;10.698;2022-08-19T01:41:50;23.60;63.10
20866;DHT22;10593;48.398;10.698;2022-08-19T01:44:19;23.60;63.00
20866;DHT22;10593;48.398;10.698;2022-08-19T01:46:51;23.50;62.80
20866;DHT22;10593;48.398;10.698;2022-08-19T01:49:20;23.50;62.80
20866;DHT22;10593;48.398;10.698;2022-08-19T01:51:47;23.50;62.90
20866;DHT22;10593;48.398;10.698;2022-08-19T01:54:16;23.50;62.70
20866;DHT22;10593;48.398;10.698;2022-08-19T01:56:42;23.50;62.60
20866;DHT22;10593;48.398;10.698;2022-08-19T01:59:16;23.50;62.70
20866;DHT22;10593;48.398;10.698;2022-08-19T02:01:44;23.50;62.60
20866;DHT22;10593;48.398;10.698;2022-08-19T02:04:10;23.50;62.40
20866;DHT22;10593;48.398;10.698;2022-08-19T02:06:37;23.50;62.50
20866;DHT22;10593;48.398;10.698;2022-08-19T02:09:04;23.50;62.50
20866;DHT22;10593;48.398;10.698;2022-08-19T02:11:33;23.40;62.60
20866;DHT22;10593;48.398;10.698;2022-08-19T02:14:03;23.40;62.70
20866;DHT22;10593;48.398;10.698;2022-08-19T02:16:31;23.40;62.70
20866;DHT22;10593;48.398;10.698;2022-08-19T02:18:58;23.40;62.60
20866;DHT22;10593;48.398;10.698;2022-08-19T02:21:28;23.40;62.70
20866;DHT22;10593;48.398;10.698;2022-08-19T02:23:54;23.30;62.60
20866;DHT22;10593;48.398;10.698;2022-08-19T02:26:21;23.30;62.60
20866;DHT22;10593;48.398;10.698;2022-08-19T02:28:47;23.30;62.70
20866;DHT22;10593;48.398;10.698;2022-08-19T02:31:16;23.30;62.80
20866;DHT22;10593;48.398;10.698;2022-08-19T02:33:45;23.30;62.90
20866;DHT22;10593;48.398;10.698;2022-08-19T02:36:12;23.30;63.00
20866;DHT22;10593;48.398;10.698;2022-08-19T02:38:39;23.30;62.90
20866;DHT22;10593;48.398;10.698;2022-08-19T02:41:10;23.30;63.00
20866;DHT22;10593;48.398;10.698;2022-08-19T02:43:40;23.30;63.40
20866;DHT22;10593;48.398;10.698;2022-08-19T02:46:20;23.30;63.40
20866;DHT22;10593;48.398;10.698;2022-08-19T02:48:52;23.20;63.40
20866;DHT22;10593;48.398;10.698;2022-08-19T02:51:22;23.30;63.40
20866;DHT22;10593;48.398;10.698;2022-08-19T02:53:52;23.20;63.30
20866;DHT22;10593;48.398;10.698;2022-08-19T02:56:19;23.20;63.30
20866;DHT22;10593;48.398;10.698;2022-08-19T02:58:46;23.20;63.40
20866;DHT22;10593;48.398;10.698;2022-08-19T03:01:21;23.20;63.50
20866;DHT22;10593;48.398;10.698;2022-08-19T03:03:50;23.20;63.60
20866;DHT22;10593;48.398;10.698;2022-08-19T03:06:17;23.20;63.50
20866;DHT22;10593;48.398;10.698;2022-08-19T03:08:44;23.20;63.60
20866;DHT22;10593;48.398;10.698;2022-08-19T03:13:48;23.20;63.80
20866;DHT22;10593;48.398;10.698;2022-08-19T03:16:25;23.20;63.70
20866;DHT22;10593;48.398;10.698;2022-08-19T03:18:53;23.10;63.70
20866;DHT22;10593;48.398;10.698;2022-08-19T03:21:25;23.20;63.70
20866;DHT22;10593;48.398;10.698;2022-08-19T03:23:57;23.20;63.80
20866;DHT22;10593;48.398;10.698;2022-08-19T03:26:26;23.10;63.80
20866;DHT22;10593;48.398;10.698;2022-08-19T03:28:52;23.10;64.00
20866;DHT22;10593;48.398;10.698;2022-08-19T03:31:20;23.10;64.10
20866;DHT22;10593;48.398;10.698;2022-08-19T03:33:48;23.10;64.10
20866;DHT22;10593;48.398;10.698;2022-08-19T03:36:18;23.10;64.10
20866;DHT22;10593;48.398;10.698;2022-08-19T03:38:53;23.10;64.10
20866;DHT22;10593;48.398;10.698;2022-08-19T03:41:33;23.10;64.10
20866;DHT22;10593;48.398;10.698;2022-08-19T03:44:03;23.10;64.10
20866;DHT22;10593;48.398;10.698;2022-08-19T03:46:31;23.10;64.10
20866;DHT22;10593;48.398;10.698;2022-08-19T03:49:00;23.00;64.00
20866;DHT22;10593;48.398;10.698;2022-08-19T03:51:35;23.00;64.20
20866;DHT22;10593;48.398;10.698;2022-08-19T03:54:05;23.00;64.40
20866;DHT22;10593;48.398;10.698;2022-08-19T03:56:35;23.00;64.50
20866;DHT22;10593;48.398;10.698;2022-08-19T03:59:03;23.00;64.70
20866;DHT22;10593;48.398;10.698;2022-08-19T04:01:30;23.00;64.70
20866;DHT22;10593;48.398;10.698;2022-08-19T04:03:57;23.00;64.50
20866;DHT22;10593;48.398;10.698;2022-08-19T04:06:26;23.00;64.60
20866;DHT22;10593;48.398;10.698;2022-08-19T04:08:58;23.00;64.50
20866;DHT22;10593;48.398;10.698;2022-08-19T04:11:29;23.00;64.40
20866;DHT22;10593;48.398;10.698;2022-08-19T04:14:23;23.00;64.70
20866;DHT22;10593;48.398;10.698;2022-08-19T04:16:52;23.00;64.80
20866;DHT22;10593;48.398;10.698;2022-08-19T04:19:19;23.00;64.80
20866;DHT22;10593;48.398;10.698;2022-08-19T04:21:47;22.90;64.80
20866;DHT22;10593;48.398;10.698;2022-08-19T04:24:15;22.90;64.90
20866;DHT22;10593;48.398;10.698;2022-08-19T04:26:42;22.90;64.90
20866;DHT22;10593;48.398;10.698;2022-08-19T04:29:11;22.90;65.00
20866;DHT22;10593;48.398;10.698;2022-08-19T04:31:44;22.90;65.10
20866;DHT22;10593;48.398;10.698;2022-08-19T04:34:12;22.90;65.10
20866;DHT22;10593;48.398;10.698;2022-08-19T04:36:42;22.90;64.90
20866;DHT22;10593;48.398;10.698;2022-08-19T04:39:16;22.90;64.70
20866;DHT22;10593;48.398;10.698;2022-08-19T04:41:45;22.90;64.90
20866;DHT22;10593;48.398;10.698;2022-08-19T04:44:34;22.80;65.00
20866;DHT22;10593;48.398;10.698;2022-08-19T04:47:01;22.80;65.20
20866;DHT22;10593;48.398;10.698;2022-08-19T04:49:30;22.80;65.10
20866;DHT22;10593;48.398;10.698;2022-08-19T04:51:56;22.90;65.30
20866;DHT22;10593;48.398;10.698;2022-08-19T04:54:24;22.80;65.30
20866;DHT22;10593;48.398;10.698;2022-08-19T04:56:51;22.80;65.30
20866;DHT22;10593;48.398;10.698;2022-08-19T04:59:19;22.80;65.30
20866;DHT22;10593;48.398;10.698;2022-08-19T05:01:45;22.80;65.30
20866;DHT22;10593;48.398;10.698;2022-08-19T05:04:19;22.80;65.50
20866;DHT22;10593;48.398;10.698;2022-08-19T05:06:47;22.80;65.50
20866;DHT22;10593;48.398;10.698;2022-08-19T05:09:17;22.80;65.50
20866;DHT22;10593;48.398;10.698;2022-08-19T05:11:43;22.80;65.50
20866;DHT22;10593;48.398;10.698;2022-08-19T05:14:10;22.80;65.50
20866;DHT22;10593;48.398;10.698;2022-08-19T05:16:38;22.80;65.60
20866;DHT22;10593;48.398;10.698;2022-08-19T05:19:04;22.80;65.60
20866;DHT22;10593;48.398;10.698;2022-08-19T05:21:48;22.80;65.70
20866;DHT22;10593;48.398;10.698;2022-08-19T05:24:32;22.80;65.80
20866;DHT22;10593;48.398;10.698;2022-08-19T05:27:00;22.80;65.80
20866;DHT22;10593;48.398;10.698;2022-08-19T05:29:29;22.80;65.80
20866;DHT22;10593;48.398;10.698;2022-08-19T05:31:57;22.80;65.80
20866;DHT22;10593;48.398;10.698;2022-08-19T05:34:25;22.80;66.00
20866;DHT22;10593;48.398;10.698;2022-08-19T05:36:54;22.80;66.00
20866;DHT22;10593;48.398;10.698;2022-08-19T05:39:24;22.80;66.20
20866;DHT22;10593;48.398;10.698;2022-08-19T05:41:57;22.80;66.20
20866;DHT22;10593;48.398;10.698;2022-08-19T05:44:27;22.80;66.20
20866;DHT22;10593;48.398;10.698;2022-08-19T05:46:58;22.80;66.10
20866;DHT22;10593;48.398;10.698;2022-08-19T05:49:25;22.80;66.40
20866;DHT22;10593;48.398;10.698;2022-08-19T05:51:52;22.80;66.40
20866;DHT22;10593;48.398;10.698;2022-08-19T05:54:20;22.80;66.30
20866;DHT22;10593;48.398;10.698;2022-08-19T05:56:49;22.80;66.40
20866;DHT22;10593;48.398;10.698;2022-08-19T05:59:17;22.80;66.40
20866;DHT22;10593;48.398;10.698;2022-08-19T06:01:50;22.80;66.40
20866;DHT22;10593;48.398;10.698;2022-08-19T06:04:19;22.80;66.40
20866;DHT22;10593;48.398;10.698;2022-08-19T06:06:47;22.80;66.40
20866;DHT22;10593;48.398;10.698;2022-08-19T06:09:16;22.80;66.40
20866;DHT22;10593;48.398;10.698;2022-08-19T06:11:46;22.80;66.40
20866;DHT22;10593;48.398;10.698;2022-08-19T06:14:17;22.80;66.40
20866;DHT22;10593;48.398;10.698;2022-08-19T06:16:46;22.80;66.50
20866;DHT22;10593;48.398;10.698;2022-08-19T06:19:15;22.80;66.40
20866;DHT22;10593;48.398;10.698;2022-08-19T06:21:45;22.80;66.40
20866;DHT22;10593;48.398;10.698;2022-08-19T06:24:14;22.80;66.40
20866;DHT22;10593;48.398;10.698;2022-08-19T06:26:44;22.80;66.50
20866;DHT22;10593;48.398;10.698;2022-08-19T06:29:12;22.80;66.40
20866;DHT22;10593;48.398;10.698;2022-08-19T06:31:43;22.80;66.40
20866;DHT22;10593;48.398;10.698;2022-08-19T06:34:11;22.80;66.50
20866;DHT22;10593;48.398;10.698;2022-08-19T06:36:43;22.80;66.50
20866;DHT22;10593;48.398;10.698;2022-08-19T06:39:24;22.80;66.40
20866;DHT22;10593;48.398;10.698;2022-08-19T06:41:54;22.80;66.40
20866;DHT22;10593;48.398;10.698;2022-08-19T06:44:23;22.80;66.40
20866;DHT22;10593;48.398;10.698;2022-08-19T06:46:51;22.80;66.40
20866;DHT22;10593;48.398;10.698;2022-08-19T06:49:18;22.80;66.40
20866;DHT22;10593;48.398;10.698;2022-08-19T06:51:45;22.80;66.40
20866;DHT22;10593;48.398;10.698;2022-08-19T06:54:17;22.80;66.20
20866;DHT22;10593;48.398;10.698;2022-08-19T06:56:44;22.80;66.40
20866;DHT22;10593;48.398;10.698;2022-08-19T06:59:17;22.80;66.40
20866;DHT22;10593;48.398;10.698;2022-08-19T07:01:48;22.80;66.40
20866;DHT22;10593;48.398;10.698;2022-08-19T07:04:19;22.80;66.40
20866;DHT22;10593;48.398;10.698;2022-08-19T07:06:48;22.80;66.50
20866;DHT22;10593;48.398;10.698;2022-08-19T07:09:15;22.80;66.80
20866;DHT22;10593;48.398;10.698;2022-08-19T07:11:48;22.80;66.80
20866;DHT22;10593;48.398;10.698;2022-08-19T07:14:16;22.80;66.80
20866;DHT22;10593;48.398;10.698;2022-08-19T07:16:44;22.80;66.50
20866;DHT22;10593;48.398;10.698;2022-08-19T07:19:12;22.80;66.60
20866;DHT22;10593;48.398;10.698;2022-08-19T07:21:38;22.80;66.50
20866;DHT22;10593;48.398;10.698;2022-08-19T07:24:04;22.80;66.80
20866;DHT22;10593;48.398;10.698;2022-08-19T07:26:33;22.80;66.70
20866;DHT22;10593;48.398;10.698;2022-08-19T07:29:04;22.80;66.70
20866;DHT22;10593;48.398;10.698;2022-08-19T07:31:30;22.80;66.50
20866;DHT22;10593;48.398;10.698;2022-08-19T07:33:57;22.80;66.50
20866;DHT22;10593;48.398;10.698;2022-08-19T07:36:25;22.80;66.70
20866;DHT22;10593;48.398;10.698;2022-08-19T07:38:56;22.80;66.80
20866;DHT22;10593;48.398;10.698;2022-08-19T07:41:25;22.80;66.80
20866;DHT22;10593;48.398;10.698;2022-08-19T07:43:55;22.80;67.00
20866;DHT22;10593;48.398;10.698;2022-08-19T07:46:21;22.80;66.80
20866;DHT22;10593;48.398;10.698;2022-08-19T07:48:48;22.80;66.60
20866;DHT22;10593;48.398;10.698;2022-08-19T07:51:18;22.80;66.70
20866;DHT22;10593;48.398;10.698;2022-08-19T07:53:47;22.80;66.70
20866;DHT22;10593;48.398;10.698;2022-08-19T07:56:16;22.80;66.90
20866;DHT22;10593;48.398;10.698;2022-08-19T07:58:45;22.80;67.00
20866;DHT22;10593;48.398;10.698;2022-08-19T08:01:16;22.80;66.80
20866;DHT22;10593;48.398;10.698;2022-08-19T08:03:48;22.80;66.60
20866;DHT22;10593;48.398;10.698;2022-08-19T08:06:33;22.80;66.40
20866;DHT22;10593;48.398;10.698;2022-08-19T08:09:22;22.80;66.40
20866;DHT22;10593;48.398;10.698;2022-08-19T08:11:57;22.80;66.70
20866;DHT22;10593;48.398;10.698;2022-08-19T08:14:31;22.80;66.50
20866;DHT22;10593;48.398;10.698;2022-08-19T08:17:01;22.70;66.70
20866;DHT22;10593;48.398;10.698;2022-08-19T08:19:28;22.70;66.70
20866;DHT22;10593;48.398;10.698;2022-08-19T08:21:56;22.80;66.80
20866;DHT22;10593;48.398;10.698;2022-08-19T08:24:26;22.70;66.80
20866;DHT22;10593;48.398;10.698;2022-08-19T08:26:52;22.70;67.00
20866;DHT22;10593;48.398;10.698;2022-08-19T08:29:18;22.80;67.10
20866;DHT22;10593;48.398;10.698;2022-08-19T08:31:45;22.80;66.90
20866;DHT22;10593;48.398;10.698;2022-08-19T08:34:13;22.80;66.80
20866;DHT22;10593;48.398;10.698;2022-08-19T08:36:42;22.80;66.90
20866;DHT22;10593;48.398;10.698;2022-08-19T08:39:15;22.80;66.90
20866;DHT22;10593;48.398;10.698;2022-08-19T08:44:44;22.80;66.90
20866;DHT22;10593;48.398;10.698;2022-08-19T08:47:20;22.80;66.50
20866;DHT22;10593;48.398;10.698;2022-08-19T08:49:52;22.80;66.60
20866;DHT22;10593;48.398;10.698;2022-08-19T08:52:34;22.80;66.50
20866;DHT22;10593;48.398;10.698;2022-08-19T08:55:11;22.80;66.40
20866;DHT22;10593;48.398;10.698;2022-08-19T09:00:41;22.70;66.60
20866;DHT22;10593;48.398;10.698;2022-08-19T09:03:23;22.80;66.40
20866;DHT22;10593;48.398;10.698;2022-08-19T09:06:12;22.80;66.40
20866;DHT22;10593;48.398;10.698;2022-08-19T09:14:30;22.70;67.00
20866;DHT22;10593;48.398;10.698;2022-08-19T09:17:00;22.80;66.90
20866;DHT22;10593;48.398;10.698;2022-08-19T09:19:29;22.70;66.60
20866;DHT22;10593;48.398;10.698;2022-08-19T09:21:56;22.70;66.60
20866;DHT22;10593;48.398;10.698;2022-08-19T09:24:21;22.70;66.30
20866;DHT22;10593;48.398;10.698;2022-08-19T09:26:47;22.70;66.80
20866;DHT22;10593;48.398;10.698;2022-08-19T09:29:13;22.70;66.70
20866;DHT22;10593;48.398;10.698;2022-08-19T09:31:39;22.70;66.70
20866;DHT22;10593;48.398;10.698;2022-08-19T09:34:05;22.70;66.80
20866;DHT22;10593;48.398;10.698;2022-08-19T09:36:31;22.70;66.70
20866;DHT22;10593;48.398;10.698;2022-08-19T09:38:59;22.70;66.80
20866;DHT22;10593;48.398;10.698;2022-08-19T09:41:27;22.70;66.80
20866;DHT22;10593;48.398;10.698;2022-08-19T09:43:54;22.70;66.90
20866;DHT22;10593;48.398;10.698;2022-08-19T09:46:24;22.70;66.90
20866;DHT22;10593;48.398;10.698;2022-08-19T09:48:52;22.70;67.00
20866;DHT22;10593;48.398;10.698;2022-08-19T09:51:24;22.70;67.00
20866;DHT22;10593;48.398;10.698;2022-08-19T09:53:53;22.70;66.90
20866;DHT22;10593;48.398;10.698;2022-08-19T09:56:22;22.70;66.70
20866;DHT22;10593;48.398;10.698;2022-08-19T09:58:49;22.70;66.90
20866;DHT22;10593;48.398;10.698;2022-08-19T10:01:22;22.70;66.80
20866;DHT22;10593;48.398;10.698;2022-08-19T10:03:52;22.70;66.70
20866;DHT22;10593;48.398;10.698;2022-08-19T10:06:21;22.70;66.70
20866;DHT22;10593;48.398;10.698;2022-08-19T10:08:49;22.70;66.80
20866;DHT22;10593;48.398;10.698;2022-08-19T10:11:18;22.70;66.90
20866;DHT22;10593;48.398;10.698;2022-08-19T10:13:45;22.70;67.00
20866;DHT22;10593;48.398;10.698;2022-08-19T10:16:15;22.80;67.10
20866;DHT22;10593;48.398;10.698;2022-08-19T10:18:45;22.70;67.10
20866;DHT22;10593;48.398;10.698;2022-08-19T10:21:17;22.70;67.10
20866;DHT22;10593;48.398;10.698;2022-08-19T10:23:52;22.70;67.20
20866;DHT22;10593;48.398;10.698;2022-08-19T10:26:22;22.70;67.40
20866;DHT22;10593;48.398;10.698;2022-08-19T10:28:49;22.70;67.40
20866;DHT22;10593;48.398;10.698;2022-08-19T10:31:23;22.70;67.50
20866;DHT22;10593;48.398;10.698;2022-08-19T10:33:52;22.70;67.70
20866;DHT22;10593;48.398;10.698;2022-08-19T10:36:25;22.70;67.80
20866;DHT22;10593;48.398;10.698;2022-08-19T10:38:56;22.70;67.80
20866;DHT22;10593;48.398;10.698;2022-08-19T10:41:26;22.70;68.20
20866;DHT22;10593;48.398;10.698;2022-08-19T10:43:56;22.70;68.30
20866;DHT22;10593;48.398;10.698;2022-08-19T10:46:24;22.70;68.30
20866;DHT22;10593;48.398;10.698;2022-08-19T10:48:52;22.70;68.40
20866;DHT22;10593;48.398;10.698;2022-08-19T10:51:19;22.70;68.30
20866;DHT22;10593;48.398;10.698;2022-08-19T10:54:04;22.70;68.20
20866;DHT22;10593;48.398;10.698;2022-08-19T10:56:30;22.70;68.30
20866;DHT22;10593;48.398;10.698;2022-08-19T10:59:28;22.70;68.20
20866;DHT22;10593;48.398;10.698;2022-08-19T11:01:59;22.70;68.30
20866;DHT22;10593;48.398;10.698;2022-08-19T11:04:27;22.70;68.50
20866;DHT22;10593;48.398;10.698;2022-08-19T11:06:53;22.70;68.30
20866;DHT22;10593;48.398;10.698;2022-08-19T11:09:23;22.70;68.30
20866;DHT22;10593;48.398;10.698;2022-08-19T11:11:50;22.70;68.50
20866;DHT22;10593;48.398;10.698;2022-08-19T11:14:19;22.70;68.40
20866;DHT22;10593;48.398;10.698;2022-08-19T11:16:47;22.70;68.40
20866;DHT22;10593;48.398;10.698;2022-08-19T11:19:15;22.70;68.50
20866;DHT22;10593;48.398;10.698;2022-08-19T11:21:46;22.70;68.60
20866;DHT22;10593;48.398;10.698;2022-08-19T11:24:23;22.70;68.40
20866;DHT22;10593;48.398;10.698;2022-08-19T11:26:51;22.70;68.50
20866;DHT22;10593;48.398;10.698;2022-08-19T11:29:22;22.70;68.50
20866;DHT22;10593;48.398;10.698;2022-08-19T11:31:52;22.70;68.70
20866;DHT22;10593;48.398;10.698;2022-08-19T11:34:21;22.70;68.90
20866;DHT22;10593;48.398;10.698;2022-08-19T11:36:51;22.70;69.00
20866;DHT22;10593;48.398;10.698;2022-08-19T11:39:19;22.70;69.00
20866;DHT22;10593;48.398;10.698;2022-08-19T11:41:48;22.70;69.00
20866;DHT22;10593;48.398;10.698;2022-08-19T11:44:14;22.70;69.00
20866;DHT22;10593;48.398;10.698;2022-08-19T11:46:41;22.70;69.10
20866;DHT22;10593;48.398;10.698;2022-08-19T11:49:12;22.60;69.10
20866;DHT22;10593;48.398;10.698;2022-08-19T11:51:42;22.60;68.90
20866;DHT22;10593;48.398;10.698;2022-08-19T11:54:08;22.60;68.90
20866;DHT22;10593;48.398;10.698;2022-08-19T11:56:37;22.60;68.90
20866;DHT22;10593;48.398;10.698;2022-08-19T11:59:03;22.60;68.60
20866;DHT22;10593;48.398;10.698;2022-08-19T12:01:30;22.60;68.70
20866;DHT22;10593;48.398;10.698;2022-08-19T12:03:57;22.60;68.90
20866;DHT22;10593;48.398;10.698;2022-08-19T12:06:26;22.60;69.10
20866;DHT22;10593;48.398;10.698;2022-08-19T12:08:57;22.60;69.70
20866;DHT22;10593;48.398;10.698;2022-08-19T12:11:25;22.60;69.40
20866;DHT22;10593;48.398;10.698;2022-08-19T12:13:52;22.60;69.30
20866;DHT22;10593;48.398;10.698;2022-08-19T12:16:21;22.60;69.40
20866;DHT22;10593;48.398;10.698;2022-08-19T12:18:52;22.60;69.30
20866;DHT22;10593;48.398;10.698;2022-08-19T12:21:24;22.60;69.20
20866;DHT22;10593;48.398;10.698;2022-08-19T12:23:54;22.60;69.20
20866;DHT22;10593;48.398;10.698;2022-08-19T12:26:23;22.50;68.90
20866;DHT22;10593;48.398;10.698;2022-08-19T12:28:50;22.60;69.10
20866;DHT22;10593;48.398;10.698;2022-08-19T12:31:15;22.50;69.00
20866;DHT22;10593;48.398;10.698;2022-08-19T12:33:42;22.50;68.90
20866;DHT22;10593;48.398;10.698;2022-08-19T12:36:13;22.50;69.20
20866;DHT22;10593;48.398;10.698;2022-08-19T12:38:41;22.50;69.30
20866;DHT22;10593;48.398;10.698;2022-08-19T12:41:10;22.50;69.10
20866;DHT22;10593;48.398;10.698;2022-08-19T12:43:37;22.50;69.30
20866;DHT22;10593;48.398;10.698;2022-08-19T12:46:04;22.50;69.10
20866;DHT22;10593;48.398;10.698;2022-08-19T12:48:31;22.50;69.20
20866;DHT22;10593;48.398;10.698;2022-08-19T12:50:58;22.50;69.00
20866;DHT22;10593;48.398;10.698;2022-08-19T12:53:24;22.50;69.00
20866;DHT22;10593;48.398;10.698;2022-08-19T12:55:57;22.50;69.00
20866;DHT22;10593;48.398;10.698;2022-08-19T12:58:25;22.50;69.50
20866;DHT22;10593;48.398;10.698;2022-08-19T13:00:51;22.40;69.10
20866;DHT22;10593;48.398;10.698;2022-08-19T13:03:17;22.40;69.20
20866;DHT22;10593;48.398;10.698;2022-08-19T13:05:43;22.40;69.20
20866;DHT22;10593;48.398;10.698;2022-08-19T13:08:08;22.40;69.40
20866;DHT22;10593;48.398;10.698;2022-08-19T13:10:35;22.40;69.20
20866;DHT22;10593;48.398;10.698;2022-08-19T13:13:08;22.50;69.30
20866;DHT22;10593;48.398;10.698;2022-08-19T13:15:37;22.50;69.80
20866;DHT22;10593;48.398;10.698;2022-08-19T13:18:06;22.50;69.70
20866;DHT22;10593;48.398;10.698;2022-08-19T13:20:35;22.40;69.80
20866;DHT22;10593;48.398;10.698;2022-08-19T13:23:03;22.50;70.10
20866;DHT22;10593;48.398;10.698;2022-08-19T13:25:29;22.50;69.90
20866;DHT22;10593;48.398;10.698;2022-08-19T13:27:55;22.40;70.00
20866;DHT22;10593;48.398;10.698;2022-08-19T13:30:22;22.50;70.00
20866;DHT22;10593;48.398;10.698;2022-08-19T13:33:07;22.40;70.00
20866;DHT22;10593;48.398;10.698;2022-08-19T13:35:49;22.50;70.10
20866;DHT22;10593;48.398;10.698;2022-08-19T13:38:18;22.50;70.30
20866;DHT22;10593;48.398;10.698;2022-08-19T13:40:46;22.50;70.20
20866;DHT22;10593;48.398;10.698;2022-08-19T13:43:15;22.50;70.10
20866;DHT22;10593;48.398;10.698;2022-08-19T13:45:42;22.50;70.10
20866;DHT22;10593;48.398;10.698;2022-08-19T13:48:08;22.50;70.10
20866;DHT22;10593;48.398;10.698;2022-08-19T13:50:39;22.50;70.10
20866;DHT22;10593;48.398;10.698;2022-08-19T13:53:11;22.50;70.40
20866;DHT22;10593;48.398;10.698;2022-08-19T13:55:38;22.50;70.10
20866;DHT22;10593;48.398;10.698;2022-08-19T13:58:09;22.50;70.10
20866;DHT22;10593;48.398;10.698;2022-08-19T14:00:39;22.50;70.10
20866;DHT22;10593;48.398;10.698;2022-08-19T14:03:08;22.50;70.40
20866;DHT22;10593;48.398;10.698;2022-08-19T14:05:34;22.50;70.30
20866;DHT22;10593;48.398;10.698;2022-08-19T14:08:00;22.50;70.50
20866;DHT22;10593;48.398;10.698;2022-08-19T14:10:26;22.50;70.50
20866;DHT22;10593;48.398;10.698;2022-08-19T14:12:55;22.50;70.40
20866;DHT22;10593;48.398;10.698;2022-08-19T14:15:23;22.50;70.40
20866;DHT22;10593;48.398;10.698;2022-08-19T14:17:50;22.50;70.40
20866;DHT22;10593;48.398;10.698;2022-08-19T14:20:16;22.50;70.60
20866;DHT22;10593;48.398;10.698;2022-08-19T14:22:44;22.50;70.60
20866;DHT22;10593;48.398;10.698;2022-08-19T14:25:17;22.50;70.50
20866;DHT22;10593;48.398;10.698;2022-08-19T14:27:45;22.50;70.50
20866;DHT22;10593;48.398;10.698;2022-08-19T14:30:14;22.50;70.10
20866;DHT22;10593;48.398;10.698;2022-08-19T14:32:41;22.50;70.10
20866;DHT22;10593;48.398;10.698;2022-08-19T14:35:10;22.50;70.10
20866;DHT22;10593;48.398;10.698;2022-08-19T14:37:37;22.50;70.50
20866;DHT22;10593;48.398;10.698;2022-08-19T14:40:04;22.50;70.50
20866;DHT22;10593;48.398;10.698;2022-08-19T14:42:30;22.50;70.40
20866;DHT22;10593;48.398;10.698;2022-08-19T14:45:00;22.50;70.30
20866;DHT22;10593;48.398;10.698;2022-08-19T14:47:27;22.50;70.50
20866;DHT22;10593;48.398;10.698;2022-08-19T14:49:53;22.50;70.60
20866;DHT22;10593;48.398;10.698;2022-08-19T14:52:19;22.50;70.70
20866;DHT22;10593;48.398;10.698;2022-08-19T14:54:45;22.50;70.70
20866;DHT22;10593;48.398;10.698;2022-08-19T14:57:12;22.50;70.60
20866;DHT22;10593;48.398;10.698;2022-08-19T14:59:44;22.40;70.60
20866;DHT22;10593;48.398;10.698;2022-08-19T15:02:10;22.50;70.60
20866;DHT22;10593;48.398;10.698;2022-08-19T15:04:37;22.50;70.60
20866;DHT22;10593;48.398;10.698;2022-08-19T15:07:03;22.40;70.40
20866;DHT22;10593;48.398;10.698;2022-08-19T15:09:31;22.40;70.50
20866;DHT22;10593;48.398;10.698;2022-08-19T15:11:57;22.40;70.60
20866;DHT22;10593;48.398;10.698;2022-08-19T15:14:25;22.40;70.70
20866;DHT22;10593;48.398;10.698;2022-08-19T15:16:52;22.50;70.90
20866;DHT22;10593;48.398;10.698;2022-08-19T15:19:19;22.40;71.70
20866;DHT22;10593;48.398;10.698;2022-08-19T15:21:45;22.40;70.80
20866;DHT22;10593;48.398;10.698;2022-08-19T15:24:11;22.40;70.80
20866;DHT22;10593;48.398;10.698;2022-08-19T15:26:36;22.40;70.80
20866;DHT22;10593;48.398;10.698;2022-08-19T15:29:03;22.40;70.90
20866;DHT22;10593;48.398;10.698;2022-08-19T15:31:30;22.40;70.70
20866;DHT22;10593;48.398;10.698;2022-08-19T15:34:01;22.40;70.80
20866;DHT22;10593;48.398;10.698;2022-08-19T15:36:28;22.40;70.90
20866;DHT22;10593;48.398;10.698;2022-08-19T15:38:55;22.40;70.80
20866;DHT22;10593;48.398;10.698;2022-08-19T15:41:27;22.40;70.80
20866;DHT22;10593;48.398;10.698;2022-08-19T15:44:03;22.40;71.20
20866;DHT22;10593;48.398;10.698;2022-08-19T15:46:34;22.40;70.90